Hestrud (Nord, France) - 208 m
Donnes mto: Actuelle jeudi, 18/10/2018 21:47
Date Horaire Temp Out Temp. E. min Temp. E. max Temp. Sol 1 Hum Out Hum. Sol 1 Press Rain Wind Dir Dir Solar Ev.Tr. UV Hi Solar Rad Dew Point Windchill Wind (Gust)
18/10/2018 21:47 11,8 C 11,8 C 11,8 C 11,7 C 93 % 200 cb 1023,0 hPa 0,0 mm 14,5 km/h (3 Bft) NE 45 0 min 0,025 mm 0,0 UV-I 0 W/m 10,7 C 7,5 C 19,3 km/h (3 Bft)
18/10/2018 20:47 12,2 C 12,2 C 12,2 C 11,7 C 91 % 200 cb 1022,9 hPa 0,0 mm 8,0 km/h (2 Bft) NE 45 0 min 0,025 mm 0,0 UV-I 0 W/m 10,8 C 11,2 C 11,3 km/h (2 Bft)
18/10/2018 19:47 12,9 C 12,9 C 12,9 C 12,2 C 87 % 200 cb 1022,4 hPa 0,0 mm 9,7 km/h (2 Bft) N-NE 22 0 min 0,025 mm 0,0 UV-I 0 W/m 10,8 C 11,0 C 16,1 km/h (3 Bft)
18/10/2018 18:47 14,2 C 14,2 C 14,2 C 12,8 C 79 % 200 cb 1022,0 hPa 0,0 mm 8,0 km/h (2 Bft) N-NE 22 0 min 0,076 mm 0,0 UV-I 0 W/m 10,6 C 13,3 C 11,3 km/h (2 Bft)
18/10/2018 17:47 15,3 C 15,3 C 15,3 C 14,4 C 77 % 200 cb 1022,0 hPa 0,0 mm 12,9 km/h (3 Bft) N-NE 22 17 min 0,127 mm 0,0 UV-I 63 W/m 11,3 C 12,3 C 14,5 km/h (3 Bft)
18/10/2018 16:47 15,6 C 15,6 C 15,6 C 15,0 C 77 % 200 cb 1022,1 hPa 0,0 mm 17,7 km/h (3 Bft) N-NE 22 28 min 0,152 mm 0,6 UV-I 81 W/m 11,6 C 11,1 C 22,5 km/h (4 Bft)
18/10/2018 15:47 15,6 C 15,6 C 15,6 C 15,0 C 79 % 200 cb 1022,4 hPa 0,0 mm 14,5 km/h (3 Bft) N-NE 22 55 min 0,229 mm 1,1 UV-I 329 W/m 12,0 C 12,1 C 22,5 km/h (4 Bft)
18/10/2018 14:47 15,8 C 15,8 C 15,8 C 15,0 C 79 % 200 cb 1022,6 hPa 0,0 mm 14,5 km/h (3 Bft) E-NE 67 54 min 0,127 mm 1,6 UV-I 466 W/m 12,2 C 12,3 C 22,5 km/h (4 Bft)
18/10/2018 13:47 14,7 C 14,7 C 14,7 C 14,4 C 85 % 200 cb 1022,8 hPa 0,0 mm 12,9 km/h (3 Bft) NE 45 50 min 0,076 mm 1,3 UV-I 214 W/m 12,2 C 11,6 C 19,3 km/h (3 Bft)
18/10/2018 12:47 13,0 C 13,0 C 13,0 C 13,3 C 94 % 200 cb 1023,1 hPa 0,0 mm 9,7 km/h (2 Bft) NE 45 11 min 0,051 mm 1,4 UV-I 267 W/m 12,1 C 11,1 C 12,9 km/h (3 Bft)
18/10/2018 11:47 12,7 C 12,7 C 12,7 C 12,8 C 94 % 200 cb 1022,9 hPa 0,0 mm 16,1 km/h (3 Bft) NE 45 0 min 0,051 mm 0,0 UV-I 54 W/m 11,8 C 8,0 C 20,9 km/h (4 Bft)
18/10/2018 10:47 12,9 C 12,9 C 12,9 C 12,8 C 94 % 200 cb 1022,6 hPa 0,0 mm 11,3 km/h (2 Bft) NE 45 0 min 0,025 mm 0,5 UV-I 84 W/m 12,0 C 10,2 C 14,5 km/h (3 Bft)
18/10/2018 09:47 12,2 C 12,2 C 12,2 C 12,2 C 97 % 200 cb 1022,3 hPa 0,0 mm 8,0 km/h (2 Bft) NE 45 0 min 0,000 mm 0,0 UV-I 54 W/m 11,7 C 11,2 C 17,7 km/h (3 Bft)
18/10/2018 08:47 11,0 C 11,0 C 11,0 C 10,6 C 96 % 200 cb 1022,0 hPa 0,0 mm 0,0 km/h (0 Bft) N 0 0 min 0,000 mm 0,0 UV-I 26 W/m 10,4 C 11,0 C 0,0 km/h (0 Bft)
18/10/2018 07:47 11,3 C 11,3 C 11,3 C 10,6 C 95 % 200 cb 1021,7 hPa 0,0 mm 0,0 km/h (0 Bft) N 0 0 min 0,000 mm 0,0 UV-I 0 W/m 10,5 C 11,3 C 0,0 km/h (0 Bft)
18/10/2018 06:47 11,7 C 11,7 C 11,7 C 11,1 C 95 % 200 cb 1021,5 hPa 0,0 mm 0,0 km/h (0 Bft) N 0 0 min 0,000 mm 0,0 UV-I 0 W/m 10,9 C 11,7 C 0,0 km/h (0 Bft)
18/10/2018 05:47 11,6 C 11,6 C 11,7 C 11,1 C 96 % 200 cb 1021,4 hPa 0,0 mm 0,0 km/h (0 Bft) N 0 0 min 0,000 mm 0,0 UV-I 0 W/m 11,0 C 11,6 C 0,0 km/h (0 Bft)
18/10/2018 04:47 11,6 C 11,6 C 11,6 C 11,1 C 96 % 200 cb 1021,3 hPa 0,0 mm 0,0 km/h (0 Bft) N 0 0 min 0,000 mm 0,0 UV-I 0 W/m 11,0 C 11,6 C 0,0 km/h (0 Bft)
18/10/2018 03:47 11,1 C 11,1 C 11,1 C 11,1 C 96 % 200 cb 1021,1 hPa 0,0 mm 0,0 km/h (0 Bft) N 0 0 min 0,000 mm 0,0 UV-I 0 W/m 10,5 C 11,1 C 0,0 km/h (0 Bft)
18/10/2018 02:47 10,8 C 10,8 C 10,8 C 10,0 C 94 % 200 cb 1021,0 hPa 0,0 mm 0,0 km/h (0 Bft) N 0 0 min 0,000 mm 0,0 UV-I 0 W/m 9,9 C 10,8 C 0,0 km/h (0 Bft)
18/10/2018 01:47 11,7 C 11,6 C 11,7 C 11,1 C 94 % 200 cb 1021,1 hPa 0,0 mm 0,0 km/h (0 Bft) N 0 0 min 0,000 mm 0,0 UV-I 0 W/m 10,8 C 11,7 C 0,0 km/h (0 Bft)
18/10/2018 00:47 11,7 C 11,7 C 11,7 C 11,1 C 95 % 200 cb 1021,0 hPa 0,0 mm 4,8 km/h (1 Bft) N-NE 22 0 min 0,000 mm 0,0 UV-I 0 W/m 10,9 C 11,7 C 8,0 km/h (2 Bft)
17/10/2018 23:47 12,3 C 12,3 C 12,3 C 11,7 C 95 % 200 cb 1021,0 hPa 0,0 mm 3,2 km/h (1 Bft) N-NE 22 0 min 0,000 mm 0,0 UV-I 0 W/m 11,5 C 12,3 C 6,4 km/h (2 Bft)
17/10/2018 22:47 12,9 C 12,9 C 12,9 C 11,7 C 93 % 200 cb 1020,6 hPa 0,0 mm 4,8 km/h (1 Bft) N-NE 22 0 min 0,000 mm 0,0 UV-I 0 W/m 11,8 C 12,9 C 8,0 km/h (2 Bft)
17/10/2018 22:00 13,6 C 13,6 C 13,6 C 12,2 C 91 % 200 cb 1020,2 hPa 0,0 mm 3,2 km/h (1 Bft) N-NE 22 0 min 0,000 mm 0,0 UV-I 0 W/m 12,2 C 13,6 C 8,0 km/h (2 Bft)
_ Min-Heure 03:05 03:05 03:06 02:27 16:04 22:00 22:00 - 22:07 - - - - - - 02:51 12:31 22:08
Minimum _ 10,6 C 10,6 C 10,6 C 10,0 C 76 % 200 cb 1020,2 hPa - 0,0 km/h (0 Bft) - - - - - - 9,8 C 7,1 C 0,0 km/h (0 Bft)
_ Max-Heure 14:58 14:59 14:58 14:55 09:12 22:00 12:30 22:00 15:11 - - 12:37 15:00 14:15 14:16 14:57 15:06 16:39
Maximum _ 16,1 C 16,1 C 16,1 C 15,6 C 97 % 200 cb 1023,3 hPa 0,0 mm 20,9 km/h
NE (4 Bft)
- - 1 min 0,229 mm 1,9 UV-I 512 W/m 12,5 C 15,0 C 29,0 km/h
NE (5 Bft)
Moyenne _ 12,8 C 12,8 C 12,9 C 12,2 C 90 % 200 cb 1021,8 hPa #0,0 mm 6,3 km/h (2 Bft) N-NE - #3:35 h #0,989 mm 1,1 UV-I 63 W/m 11,3 C 11,6 C 9,2 km/h (2 Bft)